createdAt,value
2022-10-05T00:00:02.019Z,100.00
2022-10-05T00:10:03.322Z,100.00
2022-10-05T00:20:04.625Z,100.00
2022-10-05T00:30:05.928Z,100.00
2022-10-05T00:40:07.220Z,100.00
2022-10-05T00:50:08.522Z,100.00
2022-10-05T01:00:09.898Z,100.00
2022-10-05T01:10:11.236Z,100.00
2022-10-05T01:20:12.641Z,100.00
2022-10-05T01:30:13.876Z,100.00
2022-10-05T01:40:15.189Z,100.00
2022-10-05T01:50:16.528Z,100.00
2022-10-05T02:00:18.072Z,100.00
2022-10-05T02:10:19.410Z,100.00
2022-10-05T02:20:20.634Z,100.00
2022-10-05T02:30:22.002Z,100.00
2022-10-05T02:40:23.320Z,100.00
2022-10-05T02:50:27.028Z,100.00
2022-10-05T03:00:28.351Z,100.00
2022-10-05T03:10:29.746Z,100.00
2022-10-05T03:20:31.061Z,100.00
2022-10-05T03:30:32.349Z,100.00
2022-10-05T03:40:33.657Z,100.00
2022-10-05T03:50:35.045Z,100.00
2022-10-05T04:00:36.367Z,100.00
2022-10-05T04:10:37.672Z,100.00
2022-10-05T04:20:38.994Z,100.00
2022-10-05T04:30:40.223Z,100.00
2022-10-05T04:40:41.547Z,100.00
2022-10-05T04:50:43.922Z,100.00
2022-10-05T05:00:45.278Z,100.00
2022-10-05T05:10:46.704Z,100.00
2022-10-05T05:20:48.011Z,100.00
2022-10-05T05:30:49.399Z,100.00
2022-10-05T05:40:50.716Z,100.00
2022-10-05T05:50:52.025Z,100.00
2022-10-05T06:00:53.396Z,100.00
2022-10-05T06:10:54.722Z,100.00
2022-10-05T06:20:56.058Z,100.00
2022-10-05T06:30:57.393Z,100.00
2022-10-05T06:40:58.787Z,100.00
2022-10-05T06:51:00.113Z,100.00
2022-10-05T07:01:01.611Z,100.00
2022-10-05T07:11:02.943Z,100.00
2022-10-05T07:21:04.312Z,100.00
2022-10-05T07:31:05.599Z,100.00
2022-10-05T07:41:07.536Z,100.00
2022-10-05T07:51:08.906Z,100.00
2022-10-05T08:01:11.128Z,100.00
2022-10-05T08:11:12.433Z,100.00
2022-10-05T08:21:13.760Z,100.00
2022-10-05T08:31:15.182Z,100.00
2022-10-05T08:41:16.787Z,100.00
2022-10-05T08:51:18.091Z,100.00
2022-10-05T09:01:19.498Z,100.00
2022-10-05T09:11:20.828Z,100.00
2022-10-05T09:21:22.488Z,100.00
2022-10-05T09:31:23.889Z,100.00
2022-10-05T09:41:25.316Z,100.00
2022-10-05T09:51:26.722Z,100.00
2022-10-05T10:01:33.794Z,100.00
2022-10-05T10:11:35.812Z,100.00
2022-10-05T10:21:37.118Z,100.00
2022-10-05T10:31:38.669Z,100.00
2022-10-05T10:41:39.997Z,100.00
2022-10-05T10:51:41.307Z,100.00
2022-10-05T11:01:42.650Z,100.00
2022-10-05T11:11:44.009Z,100.00
2022-10-05T11:21:45.375Z,100.00
2022-10-05T11:31:47.187Z,100.00
2022-10-05T11:41:49.058Z,100.00
2022-10-05T11:51:50.977Z,100.00
2022-10-05T12:01:52.539Z,100.00
2022-10-05T12:11:57.691Z,100.00
2022-10-05T12:22:01.818Z,100.00
2022-10-05T12:32:03.263Z,100.00
2022-10-05T12:42:04.627Z,100.00
2022-10-05T12:52:05.933Z,100.00
2022-10-05T13:02:08.785Z,100.00
2022-10-05T13:12:10.076Z,100.00
2022-10-05T13:22:11.391Z,100.00
2022-10-05T13:32:12.741Z,100.00
2022-10-05T13:42:14.048Z,100.00
2022-10-05T13:52:15.364Z,98.24
2022-10-05T14:02:16.691Z,96.94
2022-10-05T14:12:17.982Z,98.25
2022-10-05T14:22:19.293Z,97.41
2022-10-05T14:32:20.610Z,100.00
2022-10-05T14:42:21.919Z,96.05
2022-10-05T14:52:23.362Z,95.50
2022-10-05T15:02:24.805Z,96.74
2022-10-05T15:12:26.204Z,95.26
2022-10-05T15:22:27.548Z,97.94
2022-10-05T15:32:29.362Z,96.04
2022-10-05T15:42:30.697Z,99.99
2022-10-05T15:52:32.119Z,98.43
2022-10-05T16:02:33.445Z,100.00
2022-10-05T16:12:34.839Z,100.00
2022-10-05T16:22:38.859Z,100.00
2022-10-05T16:32:43.853Z,100.00
2022-10-05T16:42:46.596Z,100.00
2022-10-05T16:52:47.905Z,100.00
2022-10-05T17:02:50.138Z,100.00
2022-10-05T17:12:51.883Z,100.00
2022-10-05T17:22:53.433Z,100.00
2022-10-05T17:32:55.332Z,100.00
2022-10-05T17:42:56.847Z,100.00
2022-10-05T17:53:16.889Z,100.00
2022-10-05T18:03:18.176Z,100.00
2022-10-05T18:13:19.454Z,100.00
2022-10-05T18:23:23.988Z,100.00
2022-10-05T18:33:25.406Z,100.00
2022-10-05T18:43:26.772Z,100.00
2022-10-05T18:53:28.066Z,100.00
2022-10-05T19:03:29.394Z,100.00
2022-10-05T19:13:37.883Z,100.00
2022-10-05T19:23:39.939Z,100.00
2022-10-05T19:33:41.265Z,100.00
2022-10-05T19:43:42.619Z,100.00
2022-10-05T19:53:45.940Z,100.00
2022-10-05T20:03:47.248Z,100.00
2022-10-05T20:13:48.675Z,100.00
2022-10-05T20:23:49.981Z,100.00
2022-10-05T20:33:51.308Z,100.00
2022-10-05T20:43:52.704Z,100.00
2022-10-05T20:53:56.076Z,100.00
2022-10-05T21:03:57.417Z,100.00
2022-10-05T21:14:03.359Z,100.00
2022-10-05T21:24:06.815Z,100.00
2022-10-05T21:34:08.343Z,100.00
2022-10-05T21:44:09.669Z,100.00
2022-10-05T21:54:11.265Z,100.00
2022-10-05T22:04:12.622Z,100.00
2022-10-05T22:14:14.160Z,100.00
2022-10-05T22:24:15.457Z,100.00
2022-10-05T22:34:16.867Z,100.00
2022-10-05T22:44:18.173Z,100.00
2022-10-05T22:54:19.484Z,100.00
2022-10-05T23:04:20.788Z,100.00
2022-10-05T23:14:22.084Z,100.00
2022-10-05T23:24:23.383Z,100.00
2022-10-05T23:34:25.763Z,100.00
2022-10-05T23:44:27.099Z,100.00
2022-10-05T23:54:28.417Z,100.00
